Time;durP1;ratioP1;P1;durP2;ratioP2;P2;SDS_P1;SDS_P2;PMS_P1;PMS_P2;Temp;Humidity;BMP_temperature;BMP_pressure;BME280_temperature;BME280_humidity;BME280_pressure;Samples;Min_cycle;Max_cycle;Signal;HPM_P1;HPM_P2
2023/07/26 00:00:11;;;;;;;34.50;17.95;;;;;;;;;;5099178;28;20562;-83
2023/07/26 00:02:38;;;;;;;57.95;21.15;;;;;;;;;;5098925;28;20051;-83
2023/07/26 00:05:05;;;;;;;37.20;18.38;;;;;;;;;;5098496;28;20484;-81
2023/07/26 00:07:32;;;;;;;38.60;19.35;;;;;;;;;;5116307;28;20047;-83
2023/07/26 00:10:00;;;;;;;55.00;22.38;;;;;;;;;;5098039;28;20044;-83
2023/07/26 00:12:27;;;;;;;51.35;22.67;;;;;;;;;;5116142;28;20495;-83
2023/07/26 00:14:54;;;;;;;42.78;20.50;;;;;;;;;;5097301;28;20116;-82
2023/07/26 00:17:22;;;;;;;40.28;20.08;;;;;;;;;;5115457;28;20142;-84
2023/07/26 00:19:49;;;;;;;28.92;17.55;;;;;;;;;;5096648;28;20057;-84
2023/07/26 00:22:16;;;;;;;29.63;18.20;;;;;;;;;;5096579;28;20054;-83
2023/07/26 00:24:43;;;;;;;49.50;21.52;;;;;;;;;;5096510;28;20059;-83
2023/07/26 00:27:12;;;;;;;31.10;18.85;;;;;;;;;;5114270;28;20049;-84
2023/07/26 00:29:39;;;;;;;36.67;20.42;;;;;;;;;;5096268;28;20048;-82
2023/07/26 00:32:07;;;;;;;29.75;18.42;;;;;;;;;;5114491;28;20108;-82
2023/07/26 00:34:35;;;;;;;21.85;12.32;;;;;;;;;;5114279;28;20104;-82
2023/07/26 00:37:03;;;;;;;18.63;12.23;;;;;;;;;;5114211;28;20060;-82
2023/07/26 00:39:31;;;;;;;24.35;15.38;;;;;;;;;;5114007;28;20055;-83
2023/07/26 00:41:58;;;;;;;38.40;17.98;;;;;;;;;;5095469;28;20055;-81
2023/07/26 00:44:25;;;;;;;30.65;17.20;;;;;;;;;;5095502;28;20048;-81
2023/07/26 00:46:52;;;;;;;40.42;18.02;;;;;;;;;;5095397;28;20044;-83
2023/07/26 00:49:20;;;;;;;18.80;13.35;;;;;;;;;;5113794;28;20143;-82
2023/07/26 00:51:47;;;;;;;19.40;13.02;;;;;;;;;;5113629;28;20047;-83
2023/07/26 00:54:16;;;;;;;14.13;11.02;;;;;;;;;;5095532;28;20105;-81
2023/07/26 00:56:43;;;;;;;14.80;9.57;;;;;;;;;;5112853;28;20506;-82
2023/07/26 00:59:11;;;;;;;23.52;12.00;;;;;;;;;;5113104;28;20103;-81
2023/07/26 01:01:39;;;;;;;19.67;11.50;;;;;;;;;;5113439;28;20044;-83
2023/07/26 01:04:07;;;;;;;15.57;9.73;;;;;;;;;;5095369;28;20044;-83
2023/07/26 01:06:37;;;;;;;13.82;9.98;;;;;;;;;;5095799;28;20108;-83
2023/07/26 01:09:23;;;;;;;12.05;8.73;;;;;;;;;;5115774;28;20048;-83
2023/07/26 01:11:56;;;;;;;12.65;8.77;;;;;;;;;;5122152;28;20047;-82
2023/07/26 01:14:28;;;;;;;11.27;8.73;;;;;;;;;;5106314;28;20499;-83
2023/07/26 01:16:56;;;;;;;10.75;8.15;;;;;;;;;;5103536;28;20087;-83
2023/07/26 01:19:23;;;;;;;10.60;9.50;;;;;;;;;;5118502;28;20048;-83
2023/07/26 01:21:51;;;;;;;9.45;8.48;;;;;;;;;;5117965;28;20491;-83
2023/07/26 01:24:18;;;;;;;11.75;9.32;;;;;;;;;;5117897;28;20051;-83
2023/07/26 01:26:45;;;;;;;11.27;9.48;;;;;;;;;;5117568;28;20062;-83
2023/07/26 01:29:12;;;;;;;11.10;9.00;;;;;;;;;;5099123;28;20044;-83
2023/07/26 01:31:40;;;;;;;11.90;10.40;;;;;;;;;;5117579;28;20089;-83
2023/07/26 01:34:08;;;;;;;13.00;9.43;;;;;;;;;;5117008;28;20040;-83
2023/07/26 01:36:35;;;;;;;13.40;9.25;;;;;;;;;;5117724;28;20044;-81
2023/07/26 01:39:03;;;;;;;13.80;9.70;;;;;;;;;;5098492;28;20071;-84
2023/07/26 01:41:31;;;;;;;10.52;9.00;;;;;;;;;;5117626;28;20039;-83
2023/07/26 01:43:59;;;;;;;8.60;7.80;;;;;;;;;;5098457;28;20043;-83
2023/07/26 01:46:26;;;;;;;9.50;8.63;;;;;;;;;;5099401;28;20101;-84
2023/07/26 01:48:53;;;;;;;14.90;10.25;;;;;;;;;;5098490;28;20043;-83
2023/07/26 01:51:20;;;;;;;15.60;10.57;;;;;;;;;;5116963;28;20469;-84
2023/07/26 01:53:48;;;;;;;10.10;8.38;;;;;;;;;;5098719;28;20108;-83
2023/07/26 01:56:15;;;;;;;13.32;8.82;;;;;;;;;;5116285;28;20112;-83
2023/07/26 01:58:42;;;;;;;11.75;9.70;;;;;;;;;;5097501;28;20048;-83
2023/07/26 02:01:10;;;;;;;11.50;8.23;;;;;;;;;;5098704;28;20051;-83
2023/07/26 02:03:37;;;;;;;14.05;9.00;;;;;;;;;;5097293;28;20052;-84
2023/07/26 02:06:04;;;;;;;12.93;8.45;;;;;;;;;;5116020;28;20540;-83
2023/07/26 02:08:31;;;;;;;12.98;8.60;;;;;;;;;;5097421;28;20100;-83
2023/07/26 02:10:59;;;;;;;10.13;8.63;;;;;;;;;;5101334;28;20104;-82
2023/07/26 02:13:27;;;;;;;9.85;8.85;;;;;;;;;;5101676;28;20047;-83
2023/07/26 02:15:54;;;;;;;10.27;8.77;;;;;;;;;;5118714;28;20047;-82
2023/07/26 02:18:23;;;;;;;12.25;8.48;;;;;;;;;;5118907;28;20507;-83
2023/07/26 02:20:50;;;;;;;11.95;9.38;;;;;;;;;;5100862;28;20469;-83
2023/07/26 02:23:17;;;;;;;9.65;8.32;;;;;;;;;;5100852;28;20048;-83
2023/07/26 02:25:45;;;;;;;11.52;10.10;;;;;;;;;;5100197;28;20048;-83
2023/07/26 02:28:12;;;;;;;11.65;9.18;;;;;;;;;;5103306;28;20449;-83
2023/07/26 02:30:39;;;;;;;12.60;8.10;;;;;;;;;;5121375;28;20050;-83
2023/07/26 02:33:06;;;;;;;11.13;8.80;;;;;;;;;;5122071;28;20133;-82
2023/07/26 02:35:33;;;;;;;8.60;7.82;;;;;;;;;;5121423;28;20047;-83
2023/07/26 02:38:01;;;;;;;10.60;7.60;;;;;;;;;;5120836;28;20051;-83
2023/07/26 02:40:29;;;;;;;15.00;9.55;;;;;;;;;;5102100;28;20415;-82
2023/07/26 02:42:56;;;;;;;10.10;7.50;;;;;;;;;;5101421;28;20063;-83
2023/07/26 02:45:23;;;;;;;8.63;7.80;;;;;;;;;;5099815;28;20048;-83
2023/07/26 02:47:50;;;;;;;10.90;8.50;;;;;;;;;;5099586;28;20059;-81
2023/07/26 02:50:18;;;;;;;9.98;8.75;;;;;;;;;;5101470;28;20044;-83
2023/07/26 02:52:45;;;;;;;8.95;8.10;;;;;;;;;;5122032;28;20063;-83
2023/07/26 02:55:12;;;;;;;8.10;7.30;;;;;;;;;;5121748;28;20048;-80
2023/07/26 02:57:39;;;;;;;8.23;7.43;;;;;;;;;;5121092;28;20080;-83
2023/07/26 03:00:07;;;;;;;10.25;7.75;;;;;;;;;;5102457;28;20077;-83
2023/07/26 03:02:34;;;;;;;9.32;7.70;;;;;;;;;;5101604;28;20060;-83
2023/07/26 03:05:01;;;;;;;8.00;7.20;;;;;;;;;;5119527;28;20043;-83
2023/07/26 03:07:29;;;;;;;12.88;7.78;;;;;;;;;;5119603;28;20040;-83
2023/07/26 03:09:56;;;;;;;11.63;8.25;;;;;;;;;;5118880;28;20040;-82
2023/07/26 03:12:23;;;;;;;8.35;7.40;;;;;;;;;;5100414;28;20097;-83
2023/07/26 03:14:50;;;;;;;8.70;7.85;;;;;;;;;;5100228;28;20420;-83
2023/07/26 03:17:18;;;;;;;10.25;7.35;;;;;;;;;;5099812;28;20073;-83
2023/07/26 03:19:50;;;;;;;8.98;7.35;;;;;;;;;;5117390;28;20055;-84
2023/07/26 03:22:17;;;;;;;15.00;6.93;;;;;;;;;;5117136;28;20499;-82
2023/07/26 03:24:44;;;;;;;18.17;8.48;;;;;;;;;;5098754;28;20464;-83
2023/07/26 03:27:11;;;;;;;10.02;7.10;;;;;;;;;;5098946;28;20126;-81
2023/07/26 03:29:39;;;;;;;7.88;6.93;;;;;;;;;;5116709;28;20139;-83
2023/07/26 03:32:06;;;;;;;15.30;7.72;;;;;;;;;;5098252;28;20052;-82
2023/07/26 03:34:34;;;;;;;12.75;6.70;;;;;;;;;;5098365;28;20046;-83
2023/07/26 03:37:02;;;;;;;7.78;6.32;;;;;;;;;;5116039;28;20048;-83
2023/07/26 03:39:29;;;;;;;15.43;7.60;;;;;;;;;;5098259;28;20051;-82
2023/07/26 03:41:56;;;;;;;10.73;7.20;;;;;;;;;;5097071;28;20048;-81
2023/07/26 03:44:23;;;;;;;9.35;6.68;;;;;;;;;;5097349;28;20048;-81
2023/07/26 03:46:50;;;;;;;11.18;6.65;;;;;;;;;;5097042;28;20040;-83
2023/07/26 03:49:17;;;;;;;7.25;6.63;;;;;;;;;;5097348;28;20111;-83
2023/07/26 03:51:45;;;;;;;9.00;7.50;;;;;;;;;;5096955;28;20079;-83
2023/07/26 03:54:12;;;;;;;11.23;7.90;;;;;;;;;;5115115;28;20097;-82
2023/07/26 03:56:39;;;;;;;8.45;7.38;;;;;;;;;;5096460;28;20418;-84
2023/07/26 03:59:07;;;;;;;12.27;8.25;;;;;;;;;;5096936;28;20483;-82
2023/07/26 04:01:34;;;;;;;9.57;6.63;;;;;;;;;;5115252;28;20050;-82
2023/07/26 04:04:01;;;;;;;12.57;8.65;;;;;;;;;;5099527;28;20051;-83
2023/07/26 04:06:29;;;;;;;10.00;7.32;;;;;;;;;;5099754;28;20043;-83
2023/07/26 04:08:56;;;;;;;10.45;7.18;;;;;;;;;;5099171;28;20105;-82
2023/07/26 04:11:24;;;;;;;13.23;8.05;;;;;;;;;;5098799;28;20073;-83
2023/07/26 04:13:51;;;;;;;11.65;7.40;;;;;;;;;;5098050;28;20047;-83
2023/07/26 04:16:19;;;;;;;15.68;8.60;;;;;;;;;;5098556;28;20423;-81
2023/07/26 04:18:47;;;;;;;8.80;7.75;;;;;;;;;;5098070;28;20556;-82
2023/07/26 04:21:15;;;;;;;14.57;13.10;;;;;;;;;;5117179;28;20518;-83
2023/07/26 04:23:43;;;;;;;16.00;13.02;;;;;;;;;;5097853;28;20051;-81
2023/07/26 04:26:10;;;;;;;14.00;9.88;;;;;;;;;;5099590;28;20495;-84
2023/07/26 04:28:38;;;;;;;22.27;7.78;;;;;;;;;;5120437;28;20043;-84
2023/07/26 04:31:05;;;;;;;16.90;9.13;;;;;;;;;;5101750;28;20066;-84
2023/07/26 04:33:32;;;;;;;13.82;7.90;;;;;;;;;;5101023;28;20047;-83
2023/07/26 04:35:59;;;;;;;10.43;7.22;;;;;;;;;;5118660;28;20134;-83
2023/07/26 04:38:27;;;;;;;11.32;8.27;;;;;;;;;;5119272;28;20043;-81
2023/07/26 04:40:54;;;;;;;11.48;10.18;;;;;;;;;;5100164;28;20055;-83
2023/07/26 04:43:21;;;;;;;18.60;11.63;;;;;;;;;;5099646;28;20057;-84
2023/07/26 04:45:50;;;;;;;14.70;12.27;;;;;;;;;;5099527;28;20040;-84
2023/07/26 04:48:18;;;;;;;20.35;13.55;;;;;;;;;;5117168;28;20672;-83
2023/07/26 04:50:46;;;;;;;15.52;10.25;;;;;;;;;;5116193;28;20044;-83
2023/07/26 04:53:13;;;;;;;11.40;9.63;;;;;;;;;;5117238;28;20065;-83
2023/07/26 04:55:44;;;;;;;14.30;10.00;;;;;;;;;;5098287;28;20093;-84
2023/07/26 04:58:12;;;;;;;23.08;14.27;;;;;;;;;;5097441;28;20053;-83
2023/07/26 05:00:40;;;;;;;17.92;11.40;;;;;;;;;;5096732;28;20078;-81
2023/07/26 05:03:08;;;;;;;15.05;10.70;;;;;;;;;;5096873;28;20044;-83
2023/07/26 05:05:35;;;;;;;12.90;10.80;;;;;;;;;;5096990;28;20044;-83
2023/07/26 05:08:02;;;;;;;12.55;10.10;;;;;;;;;;5096374;28;20047;-83
2023/07/26 05:10:30;;;;;;;16.65;11.75;;;;;;;;;;5114800;28;20048;-81
2023/07/26 05:12:58;;;;;;;14.82;13.07;;;;;;;;;;5096434;28;20116;-83
2023/07/26 05:15:26;;;;;;;22.27;15.43;;;;;;;;;;5113765;28;20503;-81
2023/07/26 05:17:53;;;;;;;12.23;9.13;;;;;;;;;;5113462;28;20143;-81
2023/07/26 05:20:20;;;;;;;10.98;9.32;;;;;;;;;;5113722;28;20130;-83
2023/07/26 05:22:48;;;;;;;10.05;8.55;;;;;;;;;;5095795;28;20442;-83
2023/07/26 05:25:15;;;;;;;11.30;8.30;;;;;;;;;;5095300;28;20043;-83
2023/07/26 05:27:42;;;;;;;10.32;7.05;;;;;;;;;;5095327;28;20051;-82
2023/07/26 05:30:10;;;;;;;11.07;7.00;;;;;;;;;;5095686;28;20119;-83
2023/07/26 05:32:37;;;;;;;8.65;6.25;;;;;;;;;;5094691;28;20044;-83
2023/07/26 05:35:04;;;;;;;5.47;4.72;;;;;;;;;;5113513;28;20044;-84
2023/07/26 05:37:34;;;;;;;4.93;3.80;;;;;;;;;;5114555;28;20040;-83
2023/07/26 05:40:02;;;;;;;4.75;4.30;;;;;;;;;;5098071;28;20040;-83
2023/07/26 05:42:30;;;;;;;4.40;3.95;;;;;;;;;;5096859;28;20112;-80
2023/07/26 05:44:57;;;;;;;4.43;4.03;;;;;;;;;;5116967;28;20048;-82
2023/07/26 05:47:24;;;;;;;4.13;3.72;;;;;;;;;;5099749;28;20129;-83
2023/07/26 05:49:52;;;;;;;3.10;2.20;;;;;;;;;;5100725;28;20077;-81
2023/07/26 05:52:19;;;;;;;3.60;2.35;;;;;;;;;;5117973;28;20093;-83
2023/07/26 05:54:46;;;;;;;3.88;2.05;;;;;;;;;;5100227;28;20093;-82
2023/07/26 05:57:14;;;;;;;2.53;1.42;;;;;;;;;;5100505;28;20055;-82
2023/07/26 05:59:41;;;;;;;4.30;1.40;;;;;;;;;;5099745;28;20054;-81
2023/07/26 06:02:08;;;;;;;4.38;1.20;;;;;;;;;;5102424;28;20052;-83
2023/07/26 06:04:36;;;;;;;1.25;0.98;;;;;;;;;;5104985;28;20052;-83
2023/07/26 06:07:03;;;;;;;2.40;1.05;;;;;;;;;;5103681;28;20052;-83
2023/07/26 06:09:33;;;;;;;1.00;0.90;;;;;;;;;;5121515;28;20124;-82
2023/07/26 06:12:01;;;;;;;3.78;1.65;;;;;;;;;;5103978;28;20073;-83
2023/07/26 06:14:29;;;;;;;4.97;1.60;;;;;;;;;;5121459;28;20050;-82
2023/07/26 06:16:56;;;;;;;9.30;1.90;;;;;;;;;;5120537;28;20059;-83
2023/07/26 06:19:24;;;;;;;3.58;1.50;;;;;;;;;;5102455;28;20495;-80
2023/07/26 06:21:55;;;;;;;4.90;1.38;;;;;;;;;;5102417;28;20048;-82
2023/07/26 06:24:26;;;;;;;3.53;1.55;;;;;;;;;;5101989;28;20083;-82
2023/07/26 06:26:57;;;;;;;7.57;1.83;;;;;;;;;;5102225;28;20396;-82
2023/07/26 06:29:25;;;;;;;9.02;1.70;;;;;;;;;;5120114;28;20495;-82
2023/07/26 06:31:52;;;;;;;5.00;1.42;;;;;;;;;;5120190;28;20047;-82
2023/07/26 06:34:19;;;;;;;3.30;1.25;;;;;;;;;;5102736;28;20051;-83
2023/07/26 06:36:46;;;;;;;17.75;1.48;;;;;;;;;;5101448;28;20050;-82
2023/07/26 06:39:14;;;;;;;5.75;1.23;;;;;;;;;;5101906;28;20052;-82
2023/07/26 06:41:41;;;;;;;3.05;1.00;;;;;;;;;;5100860;28;20097;-81
2023/07/26 06:44:09;;;;;;;3.17;1.00;;;;;;;;;;5119289;28;20044;-82
2023/07/26 06:46:38;;;;;;;3.95;1.10;;;;;;;;;;5100161;28;20088;-81
2023/07/26 06:49:06;;;;;;;2.45;1.00;;;;;;;;;;5100384;28;20047;-82
2023/07/26 06:51:33;;;;;;;3.35;0.93;;;;;;;;;;5118283;28;20040;-82
2023/07/26 06:54:01;;;;;;;2.20;0.75;;;;;;;;;;5099904;28;20078;-82
2023/07/26 06:56:28;;;;;;;2.97;0.80;;;;;;;;;;5117101;28;20112;-82
2023/07/26 06:58:55;;;;;;;0.60;0.60;;;;;;;;;;5099189;28;20063;-82
2023/07/26 07:01:22;;;;;;;0.50;0.50;;;;;;;;;;5098486;28;20051;-82
2023/07/26 07:03:50;;;;;;;0.55;0.40;;;;;;;;;;5119098;28;20054;-82
2023/07/26 07:06:37;;;;;;;1.27;0.68;;;;;;;;;;5116923;28;20048;-82
2023/07/26 07:09:05;;;;;;;2.47;0.63;;;;;;;;;;5117050;28;20096;-82
2023/07/26 07:11:32;;;;;;;0.68;0.50;;;;;;;;;;5117654;28;20047;-82
2023/07/26 07:14:00;;;;;;;2.55;0.63;;;;;;;;;;5099225;28;20049;-82
2023/07/26 07:16:28;;;;;;;2.35;0.70;;;;;;;;;;5098777;28;20043;-82
2023/07/26 07:18:56;;;;;;;1.13;0.50;;;;;;;;;;5097970;28;20150;-81
2023/07/26 07:21:23;;;;;;;2.53;0.50;;;;;;;;;;5099090;28;20051;-82
2023/07/26 07:23:52;;;;;;;1.52;0.40;;;;;;;;;;5116919;28;20055;-83
2023/07/26 07:26:19;;;;;;;2.92;0.70;;;;;;;;;;5098493;28;20507;-82
2023/07/26 07:28:47;;;;;;;1.90;0.50;;;;;;;;;;5098248;28;20044;-82
2023/07/26 07:31:14;;;;;;;1.15;0.50;;;;;;;;;;5117059;28;20100;-82
2023/07/26 07:33:41;;;;;;;0.88;0.50;;;;;;;;;;5098217;28;20131;-83
2023/07/26 07:36:10;;;;;;;0.40;0.38;;;;;;;;;;5097892;28;20469;-82
2023/07/26 07:38:37;;;;;;;1.73;0.70;;;;;;;;;;5097839;28;20047;-82
2023/07/26 07:41:04;;;;;;;0.68;0.68;;;;;;;;;;5116902;28;20056;-81
2023/07/26 07:43:32;;;;;;;1.88;0.80;;;;;;;;;;5098764;28;20043;-81
2023/07/26 07:45:59;;;;;;;2.03;0.40;;;;;;;;;;5117335;28;20085;-82
2023/07/26 07:48:26;;;;;;;1.50;0.50;;;;;;;;;;5099001;28;20051;-82
2023/07/26 07:50:54;;;;;;;0.43;0.43;;;;;;;;;;5098543;28;20048;-82
2023/07/26 07:53:22;;;;;;;3.22;0.70;;;;;;;;;;5098730;28;20047;-82
2023/07/26 07:55:50;;;;;;;0.82;0.60;;;;;;;;;;5116169;28;20047;-83
2023/07/26 07:58:17;;;;;;;5.47;1.00;;;;;;;;;;5116890;28;20422;-83
2023/07/26 08:00:44;;;;;;;0.52;0.43;;;;;;;;;;5098027;28;20076;-83
2023/07/26 08:03:11;;;;;;;2.92;0.55;;;;;;;;;;5098263;28;20051;-83
2023/07/26 08:05:39;;;;;;;1.33;0.47;;;;;;;;;;5097442;28;20047;-82
2023/07/26 08:08:06;;;;;;;0.40;0.30;;;;;;;;;;5096828;28;20438;-83
2023/07/26 08:10:33;;;;;;;1.83;0.40;;;;;;;;;;5098120;28;20130;-83
2023/07/26 08:13:01;;;;;;;1.00;0.50;;;;;;;;;;5115462;28;20059;-82
2023/07/26 08:15:32;;;;;;;1.48;0.60;;;;;;;;;;5097010;28;20044;-82
2023/07/26 08:18:00;;;;;;;5.05;0.52;;;;;;;;;;5096685;28;20105;-82
2023/07/26 08:20:27;;;;;;;1.90;0.70;;;;;;;;;;5114222;28;20059;-81
2023/07/26 08:22:54;;;;;;;0.70;0.70;;;;;;;;;;5114653;28;20056;-81
2023/07/26 08:25:27;;;;;;;5.82;0.75;;;;;;;;;;5097067;28;20414;-82
2023/07/26 08:27:54;;;;;;;1.73;0.93;;;;;;;;;;5114438;28;20043;-83
2023/07/26 08:30:21;;;;;;;1.77;0.70;;;;;;;;;;5096651;28;20047;-83
2023/07/26 08:32:49;;;;;;;2.50;0.90;;;;;;;;;;5096379;28;20479;-82
2023/07/26 08:35:16;;;;;;;1.33;0.80;;;;;;;;;;5096218;28;20055;-82
2023/07/26 08:37:43;;;;;;;2.55;0.90;;;;;;;;;;5095722;28;20048;-82
2023/07/26 08:40:10;;;;;;;3.20;1.02;;;;;;;;;;5095928;28;20077;-83
2023/07/26 08:42:38;;;;;;;2.80;0.85;;;;;;;;;;5114168;28;20096;-82
2023/07/26 08:45:06;;;;;;;6.72;1.00;;;;;;;;;;5096069;28;20055;-82
2023/07/26 08:47:35;;;;;;;2.25;0.70;;;;;;;;;;5095516;28;20112;-82
2023/07/26 08:50:04;;;;;;;0.98;0.90;;;;;;;;;;5114068;28;20043;-81
2023/07/26 08:52:32;;;;;;;2.63;1.15;;;;;;;;;;5096654;28;20043;-82
2023/07/26 08:55:00;;;;;;;6.25;1.15;;;;;;;;;;5113727;28;20545;-82
2023/07/26 08:57:27;;;;;;;4.13;0.98;;;;;;;;;;5114904;28;20055;-81
2023/07/26 08:59:55;;;;;;;1.45;0.75;;;;;;;;;;5096500;28;20058;-81
2023/07/26 09:02:23;;;;;;;2.75;1.00;;;;;;;;;;5113888;28;20368;-81
2023/07/26 09:04:51;;;;;;;3.63;0.80;;;;;;;;;;5096012;28;20131;-81
2023/07/26 09:07:19;;;;;;;2.33;1.20;;;;;;;;;;5095418;28;20044;-82
2023/07/26 09:09:46;;;;;;;2.70;0.60;;;;;;;;;;5113988;28;20047;-82
2023/07/26 09:12:24;;;;;;;2.60;0.57;;;;;;;;;;5114237;28;20043;-82
2023/07/26 09:14:59;;;;;;;1.33;0.85;;;;;;;;;;5097623;28;20050;-82
2023/07/26 09:17:43;;;;;;;1.15;0.63;;;;;;;;;;5099865;28;20047;-82
2023/07/26 09:20:19;;;;;;;1.20;0.75;;;;;;;;;;5103505;28;20104;-82
2023/07/26 09:22:47;;;;;;;1.00;0.60;;;;;;;;;;5104086;28;20058;-82
2023/07/26 09:25:30;;;;;;;0.60;0.52;;;;;;;;;;5101939;28;20059;-80
2023/07/26 09:27:58;;;;;;;1.25;0.60;;;;;;;;;;5101653;28;20054;-82
2023/07/26 09:30:26;;;;;;;1.27;0.60;;;;;;;;;;5120807;28;20044;-80
2023/07/26 09:32:55;;;;;;;0.52;0.52;;;;;;;;;;5101901;28;20553;-81
2023/07/26 09:35:22;;;;;;;1.75;0.63;;;;;;;;;;5102030;28;20380;-82
2023/07/26 09:37:50;;;;;;;2.45;0.70;;;;;;;;;;5118979;28;20054;-83
2023/07/26 09:40:34;;;;;;;5.22;0.68;;;;;;;;;;5101518;28;20054;-83
2023/07/26 09:43:05;;;;;;;0.98;0.50;;;;;;;;;;5119499;28;20131;-81
2023/07/26 09:45:32;;;;;;;0.40;0.40;;;;;;;;;;5118165;28;20043;-80
2023/07/26 09:48:10;;;;;;;1.67;0.40;;;;;;;;;;5100524;28;20047;-82
2023/07/26 09:50:43;;;;;;;1.50;0.50;;;;;;;;;;5100950;28;20048;-81
2023/07/26 09:53:11;;;;;;;0.65;0.50;;;;;;;;;;5100613;28;20055;-81
2023/07/26 09:55:39;;;;;;;0.50;0.30;;;;;;;;;;5099863;28;20097;-81
2023/07/26 09:58:07;;;;;;;1.80;0.40;;;;;;;;;;5100507;28;20059;-81
2023/07/26 10:00:34;;;;;;;2.03;0.40;;;;;;;;;;5099698;28;20058;-81
2023/07/26 10:03:03;;;;;;;2.05;0.60;;;;;;;;;;5117734;28;20071;-82
2023/07/26 10:05:35;;;;;;;1.17;0.35;;;;;;;;;;5116878;28;20499;-81
2023/07/26 10:08:03;;;;;;;2.00;0.47;;;;;;;;;;5098911;28;20571;-82
2023/07/26 10:10:30;;;;;;;1.10;0.40;;;;;;;;;;5100135;28;20039;-82
2023/07/26 10:12:58;;;;;;;1.50;0.32;;;;;;;;;;5098413;28;20112;-82
2023/07/26 10:15:28;;;;;;;2.88;0.47;;;;;;;;;;5098185;28;20043;-81
2023/07/26 10:17:55;;;;;;;6.10;1.52;;;;;;;;;;5116363;28;20047;-82
2023/07/26 10:20:23;;;;;;;2.35;0.68;;;;;;;;;;5098396;28;20078;-80
2023/07/26 10:22:51;;;;;;;2.78;0.60;;;;;;;;;;5115932;28;20495;-81
2023/07/26 10:25:19;;;;;;;0.90;0.60;;;;;;;;;;5098259;28;20056;-81
2023/07/26 10:27:47;;;;;;;1.30;0.30;;;;;;;;;;5098282;28;20124;-82
2023/07/26 10:30:14;;;;;;;0.95;0.65;;;;;;;;;;5098428;28;20043;-80
2023/07/26 10:32:50;;;;;;;3.05;0.60;;;;;;;;;;5098926;28;20044;-81
2023/07/26 10:35:31;;;;;;;1.75;1.00;;;;;;;;;;5100018;28;20074;-81
2023/07/26 10:37:59;;;;;;;2.50;1.05;;;;;;;;;;5118417;28;20415;-81
2023/07/26 10:40:36;;;;;;;0.50;0.50;;;;;;;;;;5119238;28;20055;-80
2023/07/26 10:43:22;;;;;;;1.52;1.00;;;;;;;;;;5118428;28;20097;-81
2023/07/26 10:45:51;;;;;;;1.52;1.08;;;;;;;;;;5099355;28;20048;-81
2023/07/26 10:48:28;;;;;;;1.90;1.00;;;;;;;;;;5099480;28;20089;-81
2023/07/26 10:50:56;;;;;;;1.10;1.00;;;;;;;;;;5100446;28;20513;-81
2023/07/26 10:53:27;;;;;;;4.70;1.27;;;;;;;;;;5122593;28;20457;-81
2023/07/26 10:56:06;;;;;;;1.42;1.20;;;;;;;;;;5122106;28;20044;-81
2023/07/26 10:58:33;;;;;;;2.05;1.05;;;;;;;;;;5103301;28;20047;-82
2023/07/26 11:01:04;;;;;;;1.25;1.15;;;;;;;;;;5101568;28;20047;-81
2023/07/26 11:03:31;;;;;;;2.60;1.10;;;;;;;;;;5103044;28;20519;-81
2023/07/26 11:05:58;;;;;;;2.03;0.98;;;;;;;;;;5120518;28;20047;-82
2023/07/26 11:08:41;;;;;;;0.95;0.73;;;;;;;;;;5120686;28;20056;-80
2023/07/26 11:11:09;;;;;;;0.93;0.70;;;;;;;;;;5102751;28;20043;-81
2023/07/26 11:13:36;;;;;;;1.58;0.90;;;;;;;;;;5121864;28;20126;-82
2023/07/26 11:16:03;;;;;;;0.98;0.60;;;;;;;;;;5102639;28;20097;-81
2023/07/26 11:18:44;;;;;;;3.22;0.85;;;;;;;;;;5104857;28;20062;-81
2023/07/26 11:21:15;;;;;;;3.88;0.93;;;;;;;;;;5121357;28;20055;-81
2023/07/26 11:23:43;;;;;;;1.65;0.60;;;;;;;;;;5119767;28;20067;-80
2023/07/26 11:26:11;;;;;;;2.90;0.50;;;;;;;;;;5101810;28;20086;-81
2023/07/26 11:28:38;;;;;;;1.35;0.60;;;;;;;;;;5100500;28;20047;-81
2023/07/26 11:31:06;;;;;;;0.60;0.60;;;;;;;;;;5101904;28;20066;-81
2023/07/26 11:33:35;;;;;;;4.38;0.85;;;;;;;;;;5118296;28;20047;-80
2023/07/26 11:36:04;;;;;;;0.70;0.70;;;;;;;;;;5117545;28;20039;-81
2023/07/26 11:38:31;;;;;;;1.48;0.73;;;;;;;;;;5117977;28;20511;-81
2023/07/26 11:40:59;;;;;;;1.83;0.70;;;;;;;;;;5100722;28;20071;-81
2023/07/26 11:43:29;;;;;;;2.22;0.77;;;;;;;;;;5118884;28;20503;-81
2023/07/26 11:45:57;;;;;;;0.63;0.63;;;;;;;;;;5100133;28;20056;-80
2023/07/26 11:48:25;;;;;;;1.25;0.55;;;;;;;;;;5101185;28;20058;-81
2023/07/26 11:50:55;;;;;;;3.13;0.95;;;;;;;;;;5101007;28;20078;-80
2023/07/26 11:53:30;;;;;;;1.15;0.80;;;;;;;;;;5100257;28;20052;-81
2023/07/26 11:56:11;;;;;;;3.60;0.70;;;;;;;;;;5102163;28;20040;-82
2023/07/26 11:58:38;;;;;;;1.75;0.80;;;;;;;;;;5099569;28;20631;-81
2023/07/26 12:01:06;;;;;;;2.15;0.95;;;;;;;;;;5101503;28;20073;-81
2023/07/26 12:03:33;;;;;;;5.22;0.95;;;;;;;;;;5101543;28;20047;-80
2023/07/26 12:06:01;;;;;;;1.75;1.10;;;;;;;;;;5100134;28;20102;-81
2023/07/26 12:08:35;;;;;;;1.00;0.90;;;;;;;;;;5100793;28;20126;-81
2023/07/26 12:11:05;;;;;;;2.08;0.82;;;;;;;;;;5100493;28;20418;-81
2023/07/26 12:13:33;;;;;;;0.85;0.85;;;;;;;;;;5100034;28;20043;-80
2023/07/26 12:16:02;;;;;;;3.40;1.15;;;;;;;;;;5098619;28;20567;-81
2023/07/26 12:18:30;;;;;;;2.33;1.00;;;;;;;;;;5116810;28;20047;-80
2023/07/26 12:21:08;;;;;;;0.90;0.85;;;;;;;;;;5098437;28;20058;-82
2023/07/26 12:23:53;;;;;;;2.20;0.82;;;;;;;;;;5098560;28;20048;-80
2023/07/26 12:26:21;;;;;;;2.10;1.00;;;;;;;;;;5098184;28;20059;-81
2023/07/26 12:28:49;;;;;;;1.73;0.80;;;;;;;;;;5099146;28;20047;-82
2023/07/26 12:31:18;;;;;;;4.38;1.00;;;;;;;;;;5119169;28;20051;-82
2023/07/26 12:34:02;;;;;;;0.82;0.82;;;;;;;;;;5119228;28;20051;-81
2023/07/26 12:36:30;;;;;;;1.50;0.80;;;;;;;;;;5101873;28;20043;-80
2023/07/26 12:38:58;;;;;;;0.75;0.70;;;;;;;;;;5118686;28;20052;-79
2023/07/26 12:41:26;;;;;;;1.05;0.70;;;;;;;;;;5100060;28;20048;-81
2023/07/26 12:43:55;;;;;;;1.17;0.95;;;;;;;;;;5099955;28;20058;-81
2023/07/26 12:46:23;;;;;;;1.27;0.80;;;;;;;;;;5098961;28;20047;-81
2023/07/26 12:48:54;;;;;;;5.50;0.80;;;;;;;;;;5098296;28;20039;-83
2023/07/26 12:51:21;;;;;;;2.70;0.75;;;;;;;;;;5098288;28;20092;-81
2023/07/26 12:53:48;;;;;;;1.67;0.63;;;;;;;;;;5098272;28;20442;-80
2023/07/26 12:56:15;;;;;;;5.35;0.93;;;;;;;;;;5098893;28;20040;-80
2023/07/26 12:58:43;;;;;;;1.75;0.60;;;;;;;;;;5098611;28;20134;-80
2023/07/26 13:01:30;;;;;;;1.08;0.73;;;;;;;;;;5115784;28;20134;-82
2023/07/26 13:03:58;;;;;;;0.82;0.82;;;;;;;;;;5097169;28;20043;-80
2023/07/26 13:06:25;;;;;;;0.75;0.68;;;;;;;;;;5114931;28;20103;-80
2023/07/26 13:08:52;;;;;;;2.80;0.80;;;;;;;;;;5096108;28;20043;-82
2023/07/26 13:11:19;;;;;;;2.28;0.70;;;;;;;;;;5096450;28;20044;-80
2023/07/26 13:13:47;;;;;;;3.25;1.00;;;;;;;;;;5096173;28;20051;-79
2023/07/26 13:16:14;;;;;;;0.80;0.80;;;;;;;;;;5114621;28;20047;-80
2023/07/26 13:18:41;;;;;;;1.55;0.80;;;;;;;;;;5114388;28;20056;-81
2023/07/26 13:21:08;;;;;;;0.80;0.80;;;;;;;;;;5096508;28;20112;-79
2023/07/26 13:23:36;;;;;;;0.77;0.52;;;;;;;;;;5096257;28;20048;-79
2023/07/26 13:26:03;;;;;;;0.70;0.70;;;;;;;;;;5095562;28;20500;-80
2023/07/26 13:28:31;;;;;;;1.75;0.85;;;;;;;;;;5097342;28;20392;-80
2023/07/26 13:30:58;;;;;;;0.80;0.80;;;;;;;;;;5096060;28;20051;-79
2023/07/26 13:33:25;;;;;;;1.30;0.80;;;;;;;;;;5096855;28;20044;-81
2023/07/26 13:35:57;;;;;;;1.60;0.70;;;;;;;;;;5113990;28;20131;-81
2023/07/26 13:38:24;;;;;;;1.00;0.80;;;;;;;;;;5117391;28;20128;-81
2023/07/26 13:40:51;;;;;;;0.60;0.60;;;;;;;;;;5118388;28;20052;-81
2023/07/26 13:43:19;;;;;;;1.20;1.10;;;;;;;;;;5118332;28;20040;-81
2023/07/26 13:45:46;;;;;;;4.40;1.20;;;;;;;;;;5115112;28;20108;-79
2023/07/26 13:48:15;;;;;;;3.70;1.20;;;;;;;;;;5098597;28;20047;-82
2023/07/26 13:50:44;;;;;;;1.65;0.93;;;;;;;;;;5116456;28;20086;-80
2023/07/26 13:53:11;;;;;;;2.05;0.90;;;;;;;;;;5099479;28;20040;-80
2023/07/26 13:55:38;;;;;;;2.15;0.77;;;;;;;;;;5116053;28;20047;-79
2023/07/26 13:58:06;;;;;;;1.45;0.90;;;;;;;;;;5097951;28;20054;-81
2023/07/26 14:00:33;;;;;;;1.92;1.08;;;;;;;;;;5096910;28;20052;-81
2023/07/26 14:03:00;;;;;;;1.85;0.80;;;;;;;;;;5114516;28;20086;-79
2023/07/26 14:05:28;;;;;;;4.05;1.02;;;;;;;;;;5100631;28;20438;-81
2023/07/26 14:07:55;;;;;;;1.42;1.00;;;;;;;;;;5123434;28;20101;-81
2023/07/26 14:10:22;;;;;;;0.95;0.80;;;;;;;;;;5121095;28;20199;-83
2023/07/26 14:12:49;;;;;;;2.20;1.05;;;;;;;;;;5120781;28;20099;-81
2023/07/26 14:15:17;;;;;;;1.70;1.00;;;;;;;;;;5102581;28;20128;-81
2023/07/26 14:17:44;;;;;;;1.30;1.10;;;;;;;;;;5120270;28;20043;-81
2023/07/26 14:20:11;;;;;;;1.48;0.93;;;;;;;;;;5101130;28;20047;-81
2023/07/26 14:22:39;;;;;;;1.75;1.27;;;;;;;;;;5102210;28;20051;-81
2023/07/26 14:25:06;;;;;;;8.82;2.20;;;;;;;;;;5101263;28;20096;-80
2023/07/26 14:27:36;;;;;;;8.30;5.80;;;;;;;;;;5101054;28;20051;-80
2023/07/26 14:30:03;;;;;;;5.20;4.47;;;;;;;;;;5100636;28;20089;-81
2023/07/26 14:32:31;;;;;;;3.95;1.23;;;;;;;;;;5099528;28;20452;-80
2023/07/26 14:34:58;;;;;;;2.15;1.95;;;;;;;;;;5100010;28;20079;-80
2023/07/26 14:37:25;;;;;;;1.45;1.25;;;;;;;;;;5099359;28;20097;-80
2023/07/26 14:39:52;;;;;;;6.90;5.53;;;;;;;;;;5118019;28;20077;-81
2023/07/26 14:42:20;;;;;;;23.83;17.15;;;;;;;;;;5098869;28;20093;-82
2023/07/26 14:44:47;;;;;;;6.63;5.82;;;;;;;;;;5098931;28;20078;-80